sensor_id;sensor_type;location;lat;lon;timestamp;P1;durP1;ratioP1;P2;durP2;ratioP2
51034;SDS011;37062;52.546;13.230;2022-12-29T00:01:00;2.03;;;1.60;;
51034;SDS011;37062;52.546;13.230;2022-12-29T00:03:29;1.58;;;1.38;;
51034;SDS011;37062;52.546;13.230;2022-12-29T00:05:57;2.03;;;1.40;;
51034;SDS011;37062;52.546;13.230;2022-12-29T00:08:25;2.47;;;1.60;;
51034;SDS011;37062;52.546;13.230;2022-12-29T00:11:06;3.35;;;1.45;;
51034;SDS011;37062;52.546;13.230;2022-12-29T00:13:35;2.15;;;1.60;;
51034;SDS011;37062;52.546;13.230;2022-12-29T00:16:22;4.20;;;1.65;;
51034;SDS011;37062;52.546;13.230;2022-12-29T00:18:50;3.10;;;1.63;;
51034;SDS011;37062;52.546;13.230;2022-12-29T00:21:20;2.75;;;1.50;;
51034;SDS011;37062;52.546;13.230;2022-12-29T00:24:08;2.17;;;1.48;;
51034;SDS011;37062;52.546;13.230;2022-12-29T00:26:58;1.98;;;1.52;;
51034;SDS011;37062;52.546;13.230;2022-12-29T00:29:54;2.00;;;1.50;;
51034;SDS011;37062;52.546;13.230;2022-12-29T00:32:42;2.42;;;1.60;;
51034;SDS011;37062;52.546;13.230;2022-12-29T00:35:28;2.45;;;1.58;;
51034;SDS011;37062;52.546;13.230;2022-12-29T00:38:00;2.50;;;1.60;;
51034;SDS011;37062;52.546;13.230;2022-12-29T00:40:49;2.92;;;1.30;;
51034;SDS011;37062;52.546;13.230;2022-12-29T00:43:35;3.30;;;1.60;;
51034;SDS011;37062;52.546;13.230;2022-12-29T00:46:20;2.40;;;1.60;;
51034;SDS011;37062;52.546;13.230;2022-12-29T00:48:50;1.88;;;1.55;;
51034;SDS011;37062;52.546;13.230;2022-12-29T00:51:36;2.92;;;1.75;;
51034;SDS011;37062;52.546;13.230;2022-12-29T00:54:04;3.08;;;1.75;;
51034;SDS011;37062;52.546;13.230;2022-12-29T00:56:32;3.47;;;1.55;;
51034;SDS011;37062;52.546;13.230;2022-12-29T00:59:00;2.17;;;1.42;;
51034;SDS011;37062;52.546;13.230;2022-12-29T01:01:29;2.30;;;1.42;;
51034;SDS011;37062;52.546;13.230;2022-12-29T01:03:59;3.25;;;1.58;;
51034;SDS011;37062;52.546;13.230;2022-12-29T01:06:30;2.33;;;1.40;;
51034;SDS011;37062;52.546;13.230;2022-12-29T01:08:58;3.85;;;1.55;;
51034;SDS011;37062;52.546;13.230;2022-12-29T01:11:44;1.88;;;1.40;;
51034;SDS011;37062;52.546;13.230;2022-12-29T01:14:12;1.80;;;1.52;;
51034;SDS011;37062;52.546;13.230;2022-12-29T01:16:40;2.38;;;1.50;;
51034;SDS011;37062;52.546;13.230;2022-12-29T01:19:10;1.80;;;1.30;;
51034;SDS011;37062;52.546;13.230;2022-12-29T01:21:39;2.13;;;1.48;;
51034;SDS011;37062;52.546;13.230;2022-12-29T01:24:07;2.58;;;1.60;;
51034;SDS011;37062;52.546;13.230;2022-12-29T01:26:35;2.60;;;1.40;;
51034;SDS011;37062;52.546;13.230;2022-12-29T01:29:03;1.70;;;1.10;;
51034;SDS011;37062;52.546;13.230;2022-12-29T01:31:32;2.85;;;1.40;;
51034;SDS011;37062;52.546;13.230;2022-12-29T01:34:00;5.60;;;1.90;;
51034;SDS011;37062;52.546;13.230;2022-12-29T01:36:30;2.50;;;1.45;;
51034;SDS011;37062;52.546;13.230;2022-12-29T01:38:59;2.60;;;1.63;;
51034;SDS011;37062;52.546;13.230;2022-12-29T01:41:27;3.13;;;1.42;;
51034;SDS011;37062;52.546;13.230;2022-12-29T01:43:56;2.80;;;1.60;;
51034;SDS011;37062;52.546;13.230;2022-12-29T01:46:28;2.10;;;1.58;;
51034;SDS011;37062;52.546;13.230;2022-12-29T01:51:47;2.45;;;1.30;;
51034;SDS011;37062;52.546;13.230;2022-12-29T01:54:20;4.03;;;1.50;;
51034;SDS011;37062;52.546;13.230;2022-12-29T01:56:53;1.45;;;1.30;;
51034;SDS011;37062;52.546;13.230;2022-12-29T01:59:24;2.00;;;1.50;;
51034;SDS011;37062;52.546;13.230;2022-12-29T02:01:55;3.55;;;2.13;;
51034;SDS011;37062;52.546;13.230;2022-12-29T02:04:25;3.30;;;1.30;;
51034;SDS011;37062;52.546;13.230;2022-12-29T02:06:59;1.80;;;1.40;;
51034;SDS011;37062;52.546;13.230;2022-12-29T02:09:30;2.42;;;1.60;;
51034;SDS011;37062;52.546;13.230;2022-12-29T02:11:58;2.92;;;1.50;;
51034;SDS011;37062;52.546;13.230;2022-12-29T02:14:28;3.55;;;1.65;;
51034;SDS011;37062;52.546;13.230;2022-12-29T02:16:59;1.80;;;1.50;;
51034;SDS011;37062;52.546;13.230;2022-12-29T02:19:58;1.70;;;1.42;;
51034;SDS011;37062;52.546;13.230;2022-12-29T02:23:00;1.83;;;1.60;;
51034;SDS011;37062;52.546;13.230;2022-12-29T02:25:47;1.95;;;1.50;;
51034;SDS011;37062;52.546;13.230;2022-12-29T02:28:46;2.45;;;1.70;;
51034;SDS011;37062;52.546;13.230;2022-12-29T02:31:45;2.30;;;1.30;;
51034;SDS011;37062;52.546;13.230;2022-12-29T02:34:21;1.80;;;1.60;;
51034;SDS011;37062;52.546;13.230;2022-12-29T02:36:58;2.15;;;1.60;;
51034;SDS011;37062;52.546;13.230;2022-12-29T02:39:34;1.65;;;1.42;;
51034;SDS011;37062;52.546;13.230;2022-12-29T02:42:09;1.55;;;1.45;;
51034;SDS011;37062;52.546;13.230;2022-12-29T02:44:51;3.85;;;1.60;;
51034;SDS011;37062;52.546;13.230;2022-12-29T02:47:26;2.20;;;1.40;;
51034;SDS011;37062;52.546;13.230;2022-12-29T02:50:03;2.28;;;1.45;;
51034;SDS011;37062;52.546;13.230;2022-12-29T02:52:36;3.13;;;1.45;;
51034;SDS011;37062;52.546;13.230;2022-12-29T02:55:08;2.97;;;1.50;;
51034;SDS011;37062;52.546;13.230;2022-12-29T02:57:37;2.15;;;1.30;;
51034;SDS011;37062;52.546;13.230;2022-12-29T03:00:06;2.72;;;1.33;;
51034;SDS011;37062;52.546;13.230;2022-12-29T03:02:56;3.05;;;1.60;;
51034;SDS011;37062;52.546;13.230;2022-12-29T03:05:47;4.25;;;1.45;;
51034;SDS011;37062;52.546;13.230;2022-12-29T03:08:28;2.53;;;1.73;;
51034;SDS011;37062;52.546;13.230;2022-12-29T03:11:03;2.47;;;1.40;;
51034;SDS011;37062;52.546;13.230;2022-12-29T03:13:54;2.25;;;1.45;;
51034;SDS011;37062;52.546;13.230;2022-12-29T03:16:45;1.98;;;1.40;;
51034;SDS011;37062;52.546;13.230;2022-12-29T03:19:17;2.28;;;1.38;;
51034;SDS011;37062;52.546;13.230;2022-12-29T03:21:50;1.58;;;1.40;;
51034;SDS011;37062;52.546;13.230;2022-12-29T03:24:43;1.60;;;1.50;;
51034;SDS011;37062;52.546;13.230;2022-12-29T03:27:18;1.67;;;1.20;;
51034;SDS011;37062;52.546;13.230;2022-12-29T03:29:50;2.00;;;1.60;;
51034;SDS011;37062;52.546;13.230;2022-12-29T03:32:23;2.10;;;1.30;;
51034;SDS011;37062;52.546;13.230;2022-12-29T03:34:57;2.40;;;1.42;;
51034;SDS011;37062;52.546;13.230;2022-12-29T03:37:28;2.10;;;1.27;;
51034;SDS011;37062;52.546;13.230;2022-12-29T03:40:02;2.45;;;1.20;;
51034;SDS011;37062;52.546;13.230;2022-12-29T03:42:32;1.75;;;1.30;;
51034;SDS011;37062;52.546;13.230;2022-12-29T03:45:04;1.67;;;1.17;;
51034;SDS011;37062;52.546;13.230;2022-12-29T03:47:33;1.98;;;1.38;;
51034;SDS011;37062;52.546;13.230;2022-12-29T03:50:04;2.65;;;1.50;;
51034;SDS011;37062;52.546;13.230;2022-12-29T03:52:38;3.00;;;1.45;;
51034;SDS011;37062;52.546;13.230;2022-12-29T03:55:06;1.50;;;1.30;;
51034;SDS011;37062;52.546;13.230;2022-12-29T03:57:37;1.90;;;1.48;;
51034;SDS011;37062;52.546;13.230;2022-12-29T04:00:09;1.38;;;1.20;;
51034;SDS011;37062;52.546;13.230;2022-12-29T04:02:43;2.97;;;1.50;;
51034;SDS011;37062;52.546;13.230;2022-12-29T04:05:19;2.05;;;1.55;;
51034;SDS011;37062;52.546;13.230;2022-12-29T04:07:50;2.22;;;1.40;;
51034;SDS011;37062;52.546;13.230;2022-12-29T04:10:18;1.42;;;1.20;;
51034;SDS011;37062;52.546;13.230;2022-12-29T04:12:49;1.33;;;1.23;;
51034;SDS011;37062;52.546;13.230;2022-12-29T04:15:18;2.13;;;1.30;;
51034;SDS011;37062;52.546;13.230;2022-12-29T04:17:47;2.47;;;1.30;;
51034;SDS011;37062;52.546;13.230;2022-12-29T04:20:16;2.97;;;1.40;;
51034;SDS011;37062;52.546;13.230;2022-12-29T04:23:05;4.75;;;1.45;;
51034;SDS011;37062;52.546;13.230;2022-12-29T04:25:36;2.20;;;1.55;;
51034;SDS011;37062;52.546;13.230;2022-12-29T04:28:07;2.78;;;1.60;;
51034;SDS011;37062;52.546;13.230;2022-12-29T04:30:54;1.60;;;1.45;;
51034;SDS011;37062;52.546;13.230;2022-12-29T04:33:31;2.13;;;1.77;;
51034;SDS011;37062;52.546;13.230;2022-12-29T04:35:59;2.78;;;1.40;;
51034;SDS011;37062;52.546;13.230;2022-12-29T04:38:29;1.92;;;1.48;;
51034;SDS011;37062;52.546;13.230;2022-12-29T04:40:59;2.22;;;1.60;;
51034;SDS011;37062;52.546;13.230;2022-12-29T04:43:29;2.65;;;1.45;;
51034;SDS011;37062;52.546;13.230;2022-12-29T04:46:26;2.67;;;1.70;;
51034;SDS011;37062;52.546;13.230;2022-12-29T04:48:58;1.90;;;1.50;;
51034;SDS011;37062;52.546;13.230;2022-12-29T04:51:52;2.05;;;1.25;;
51034;SDS011;37062;52.546;13.230;2022-12-29T04:54:23;2.42;;;1.50;;
51034;SDS011;37062;52.546;13.230;2022-12-29T04:57:14;3.35;;;1.70;;
51034;SDS011;37062;52.546;13.230;2022-12-29T04:59:48;2.33;;;1.60;;
51034;SDS011;37062;52.546;13.230;2022-12-29T05:02:16;2.60;;;1.67;;
51034;SDS011;37062;52.546;13.230;2022-12-29T05:04:48;2.50;;;1.55;;
51034;SDS011;37062;52.546;13.230;2022-12-29T05:07:17;2.45;;;1.70;;
51034;SDS011;37062;52.546;13.230;2022-12-29T05:09:48;2.60;;;1.60;;
51034;SDS011;37062;52.546;13.230;2022-12-29T05:12:16;2.05;;;1.42;;
51034;SDS011;37062;52.546;13.230;2022-12-29T05:14:53;1.90;;;1.42;;
51034;SDS011;37062;52.546;13.230;2022-12-29T05:17:21;1.83;;;1.48;;
51034;SDS011;37062;52.546;13.230;2022-12-29T05:19:50;3.15;;;1.40;;
51034;SDS011;37062;52.546;13.230;2022-12-29T05:22:18;2.67;;;1.45;;
51034;SDS011;37062;52.546;13.230;2022-12-29T05:24:49;2.15;;;1.60;;
51034;SDS011;37062;52.546;13.230;2022-12-29T05:27:17;1.40;;;1.30;;
51034;SDS011;37062;52.546;13.230;2022-12-29T05:30:12;2.35;;;1.50;;
51034;SDS011;37062;52.546;13.230;2022-12-29T05:32:40;2.00;;;1.63;;
51034;SDS011;37062;52.546;13.230;2022-12-29T05:35:08;2.50;;;1.40;;
51034;SDS011;37062;52.546;13.230;2022-12-29T05:37:37;1.35;;;1.20;;
51034;SDS011;37062;52.546;13.230;2022-12-29T05:40:08;1.65;;;1.42;;
51034;SDS011;37062;52.546;13.230;2022-12-29T05:42:37;1.45;;;1.30;;
51034;SDS011;37062;52.546;13.230;2022-12-29T05:45:29;1.65;;;1.38;;
51034;SDS011;37062;52.546;13.230;2022-12-29T05:48:22;2.67;;;1.70;;
51034;SDS011;37062;52.546;13.230;2022-12-29T05:51:13;2.47;;;1.40;;
51034;SDS011;37062;52.546;13.230;2022-12-29T05:53:49;2.28;;;1.35;;
51034;SDS011;37062;52.546;13.230;2022-12-29T05:56:18;2.90;;;1.40;;
51034;SDS011;37062;52.546;13.230;2022-12-29T05:58:54;2.60;;;1.60;;
51034;SDS011;37062;52.546;13.230;2022-12-29T06:01:23;2.28;;;1.27;;
51034;SDS011;37062;52.546;13.230;2022-12-29T06:03:52;3.22;;;1.50;;
51034;SDS011;37062;52.546;13.230;2022-12-29T06:06:21;2.55;;;1.50;;
51034;SDS011;37062;52.546;13.230;2022-12-29T06:08:49;1.45;;;1.30;;
51034;SDS011;37062;52.546;13.230;2022-12-29T06:11:19;1.33;;;1.20;;
51034;SDS011;37062;52.546;13.230;2022-12-29T06:13:52;1.92;;;1.52;;
51034;SDS011;37062;52.546;13.230;2022-12-29T06:16:22;1.63;;;1.35;;
51034;SDS011;37062;52.546;13.230;2022-12-29T06:18:53;1.55;;;1.27;;
51034;SDS011;37062;52.546;13.230;2022-12-29T06:21:21;2.75;;;1.42;;
51034;SDS011;37062;52.546;13.230;2022-12-29T06:23:49;2.05;;;1.55;;
51034;SDS011;37062;52.546;13.230;2022-12-29T06:26:17;1.50;;;1.30;;
51034;SDS011;37062;52.546;13.230;2022-12-29T06:28:47;2.85;;;1.58;;
51034;SDS011;37062;52.546;13.230;2022-12-29T06:31:15;2.15;;;1.20;;
51034;SDS011;37062;52.546;13.230;2022-12-29T06:33:44;4.25;;;1.63;;
51034;SDS011;37062;52.546;13.230;2022-12-29T06:36:16;2.65;;;1.50;;
51034;SDS011;37062;52.546;13.230;2022-12-29T06:38:44;3.72;;;1.40;;
51034;SDS011;37062;52.546;13.230;2022-12-29T06:41:12;1.55;;;1.30;;
51034;SDS011;37062;52.546;13.230;2022-12-29T06:44:00;2.22;;;1.30;;
51034;SDS011;37062;52.546;13.230;2022-12-29T06:46:43;3.05;;;1.50;;
51034;SDS011;37062;52.546;13.230;2022-12-29T06:49:11;2.08;;;1.35;;
51034;SDS011;37062;52.546;13.230;2022-12-29T06:51:40;1.30;;;1.20;;
51034;SDS011;37062;52.546;13.230;2022-12-29T06:54:08;2.08;;;1.50;;
51034;SDS011;37062;52.546;13.230;2022-12-29T06:56:36;2.92;;;1.35;;
51034;SDS011;37062;52.546;13.230;2022-12-29T06:59:05;1.30;;;1.20;;
51034;SDS011;37062;52.546;13.230;2022-12-29T07:01:33;2.05;;;1.13;;
51034;SDS011;37062;52.546;13.230;2022-12-29T07:04:03;2.92;;;1.60;;
51034;SDS011;37062;52.546;13.230;2022-12-29T07:06:31;1.40;;;1.30;;
51034;SDS011;37062;52.546;13.230;2022-12-29T07:08:59;3.47;;;1.25;;
51034;SDS011;37062;52.546;13.230;2022-12-29T07:11:27;2.58;;;1.20;;
51034;SDS011;37062;52.546;13.230;2022-12-29T07:13:55;1.83;;;1.20;;
51034;SDS011;37062;52.546;13.230;2022-12-29T07:16:28;1.77;;;1.20;;
51034;SDS011;37062;52.546;13.230;2022-12-29T07:18:57;3.10;;;1.20;;
51034;SDS011;37062;52.546;13.230;2022-12-29T07:21:26;1.25;;;1.00;;
51034;SDS011;37062;52.546;13.230;2022-12-29T07:23:54;2.25;;;1.20;;
51034;SDS011;37062;52.546;13.230;2022-12-29T07:26:22;1.50;;;1.30;;
51034;SDS011;37062;52.546;13.230;2022-12-29T07:28:50;1.83;;;1.20;;
51034;SDS011;37062;52.546;13.230;2022-12-29T07:31:19;1.60;;;1.10;;
51034;SDS011;37062;52.546;13.230;2022-12-29T07:33:49;1.60;;;1.20;;
51034;SDS011;37062;52.546;13.230;2022-12-29T07:36:17;1.77;;;1.20;;
51034;SDS011;37062;52.546;13.230;2022-12-29T07:38:46;2.20;;;1.17;;
51034;SDS011;37062;52.546;13.230;2022-12-29T07:41:14;1.33;;;1.00;;
51034;SDS011;37062;52.546;13.230;2022-12-29T07:43:42;1.38;;;1.10;;
51034;SDS011;37062;52.546;13.230;2022-12-29T07:46:30;1.90;;;1.30;;
51034;SDS011;37062;52.546;13.230;2022-12-29T07:49:19;1.90;;;1.38;;
51034;SDS011;37062;52.546;13.230;2022-12-29T07:51:47;1.70;;;1.13;;
51034;SDS011;37062;52.546;13.230;2022-12-29T07:54:15;1.38;;;1.00;;
51034;SDS011;37062;52.546;13.230;2022-12-29T07:56:44;1.20;;;1.10;;
51034;SDS011;37062;52.546;13.230;2022-12-29T07:59:13;1.48;;;1.27;;
51034;SDS011;37062;52.546;13.230;2022-12-29T08:01:41;1.80;;;1.40;;
51034;SDS011;37062;52.546;13.230;2022-12-29T08:04:09;2.00;;;1.40;;
51034;SDS011;37062;52.546;13.230;2022-12-29T08:06:39;1.60;;;1.30;;
51034;SDS011;37062;52.546;13.230;2022-12-29T08:09:07;1.52;;;1.17;;
51034;SDS011;37062;52.546;13.230;2022-12-29T08:11:43;1.60;;;1.30;;
51034;SDS011;37062;52.546;13.230;2022-12-29T08:14:11;2.85;;;1.30;;
51034;SDS011;37062;52.546;13.230;2022-12-29T08:16:40;2.38;;;1.40;;
51034;SDS011;37062;52.546;13.230;2022-12-29T08:19:09;1.98;;;1.30;;
51034;SDS011;37062;52.546;13.230;2022-12-29T08:21:39;1.75;;;1.30;;
51034;SDS011;37062;52.546;13.230;2022-12-29T08:24:08;1.65;;;1.20;;
51034;SDS011;37062;52.546;13.230;2022-12-29T08:26:36;1.35;;;1.10;;
51034;SDS011;37062;52.546;13.230;2022-12-29T08:29:05;1.60;;;1.20;;
51034;SDS011;37062;52.546;13.230;2022-12-29T08:31:33;1.42;;;1.27;;
51034;SDS011;37062;52.546;13.230;2022-12-29T08:34:01;1.98;;;1.10;;
51034;SDS011;37062;52.546;13.230;2022-12-29T08:36:30;3.15;;;1.20;;
51034;SDS011;37062;52.546;13.230;2022-12-29T08:39:00;1.65;;;1.10;;
51034;SDS011;37062;52.546;13.230;2022-12-29T08:41:28;2.08;;;1.10;;
51034;SDS011;37062;52.546;13.230;2022-12-29T08:43:56;1.25;;;1.15;;
51034;SDS011;37062;52.546;13.230;2022-12-29T08:46:24;1.15;;;1.05;;
51034;SDS011;37062;52.546;13.230;2022-12-29T08:48:53;1.20;;;1.10;;
51034;SDS011;37062;52.546;13.230;2022-12-29T08:51:21;1.63;;;1.20;;
51034;SDS011;37062;52.546;13.230;2022-12-29T08:53:50;1.95;;;1.30;;
51034;SDS011;37062;52.546;13.230;2022-12-29T08:56:21;1.52;;;1.20;;
51034;SDS011;37062;52.546;13.230;2022-12-29T08:58:54;2.85;;;1.55;;
51034;SDS011;37062;52.546;13.230;2022-12-29T09:01:23;1.17;;;1.00;;
51034;SDS011;37062;52.546;13.230;2022-12-29T09:03:52;1.38;;;1.10;;
51034;SDS011;37062;52.546;13.230;2022-12-29T09:06:41;2.42;;;1.42;;
51034;SDS011;37062;52.546;13.230;2022-12-29T09:09:09;1.60;;;1.23;;
51034;SDS011;37062;52.546;13.230;2022-12-29T09:11:39;1.30;;;1.05;;
51034;SDS011;37062;52.546;13.230;2022-12-29T09:14:08;2.17;;;1.10;;
51034;SDS011;37062;52.546;13.230;2022-12-29T09:16:36;2.28;;;1.15;;
51034;SDS011;37062;52.546;13.230;2022-12-29T09:19:05;1.98;;;1.25;;
51034;SDS011;37062;52.546;13.230;2022-12-29T09:21:33;1.48;;;1.08;;
51034;SDS011;37062;52.546;13.230;2022-12-29T09:24:01;1.30;;;1.08;;
51034;SDS011;37062;52.546;13.230;2022-12-29T09:26:29;1.27;;;1.15;;
51034;SDS011;37062;52.546;13.230;2022-12-29T09:28:59;1.23;;;1.05;;
51034;SDS011;37062;52.546;13.230;2022-12-29T09:31:27;1.90;;;1.15;;
51034;SDS011;37062;52.546;13.230;2022-12-29T09:33:56;1.90;;;1.20;;
51034;SDS011;37062;52.546;13.230;2022-12-29T09:36:24;3.05;;;1.10;;
51034;SDS011;37062;52.546;13.230;2022-12-29T09:38:53;3.22;;;1.20;;
51034;SDS011;37062;52.546;13.230;2022-12-29T09:41:23;2.22;;;1.20;;
51034;SDS011;37062;52.546;13.230;2022-12-29T09:44:02;1.42;;;1.00;;
51034;SDS011;37062;52.546;13.230;2022-12-29T09:46:34;2.40;;;1.30;;
51034;SDS011;37062;52.546;13.230;2022-12-29T09:49:08;17.77;;;2.00;;
51034;SDS011;37062;52.546;13.230;2022-12-29T09:51:44;1.85;;;1.30;;
51034;SDS011;37062;52.546;13.230;2022-12-29T09:54:30;1.42;;;0.95;;
51034;SDS011;37062;52.546;13.230;2022-12-29T09:57:09;1.38;;;1.00;;
51034;SDS011;37062;52.546;13.230;2022-12-29T09:59:43;2.78;;;1.40;;
51034;SDS011;37062;52.546;13.230;2022-12-29T10:02:17;2.05;;;1.00;;
51034;SDS011;37062;52.546;13.230;2022-12-29T10:04:54;3.65;;;1.02;;
51034;SDS011;37062;52.546;13.230;2022-12-29T10:07:25;1.10;;;0.90;;
51034;SDS011;37062;52.546;13.230;2022-12-29T10:10:03;2.25;;;0.85;;
51034;SDS011;37062;52.546;13.230;2022-12-29T10:12:49;2.17;;;1.20;;
51034;SDS011;37062;52.546;13.230;2022-12-29T10:18:18;2.00;;;1.42;;
51034;SDS011;37062;52.546;13.230;2022-12-29T10:20:54;2.67;;;1.30;;
51034;SDS011;37062;52.546;13.230;2022-12-29T10:23:27;1.67;;;1.20;;
51034;SDS011;37062;52.546;13.230;2022-12-29T10:25:58;3.55;;;1.20;;
51034;SDS011;37062;52.546;13.230;2022-12-29T10:28:31;1.05;;;0.95;;
51034;SDS011;37062;52.546;13.230;2022-12-29T10:31:07;2.03;;;1.10;;
51034;SDS011;37062;52.546;13.230;2022-12-29T10:33:41;3.30;;;1.00;;
51034;SDS011;37062;52.546;13.230;2022-12-29T10:36:14;2.75;;;1.10;;
51034;SDS011;37062;52.546;13.230;2022-12-29T10:38:48;1.77;;;1.10;;
51034;SDS011;37062;52.546;13.230;2022-12-29T10:41:21;1.63;;;0.95;;
51034;SDS011;37062;52.546;13.230;2022-12-29T10:43:54;2.03;;;1.00;;
51034;SDS011;37062;52.546;13.230;2022-12-29T10:46:27;2.65;;;1.02;;
51034;SDS011;37062;52.546;13.230;2022-12-29T10:49:01;1.85;;;1.65;;
51034;SDS011;37062;52.546;13.230;2022-12-29T10:51:30;1.67;;;0.98;;
51034;SDS011;37062;52.546;13.230;2022-12-29T10:54:02;1.23;;;1.00;;
51034;SDS011;37062;52.546;13.230;2022-12-29T10:56:34;2.08;;;0.90;;
51034;SDS011;37062;52.546;13.230;2022-12-29T10:59:07;2.10;;;1.10;;
51034;SDS011;37062;52.546;13.230;2022-12-29T11:01:46;1.83;;;1.00;;
51034;SDS011;37062;52.546;13.230;2022-12-29T11:04:35;2.60;;;0.98;;
51034;SDS011;37062;52.546;13.230;2022-12-29T11:07:10;2.00;;;1.00;;
51034;SDS011;37062;52.546;13.230;2022-12-29T11:09:42;2.45;;;1.10;;
51034;SDS011;37062;52.546;13.230;2022-12-29T11:12:22;1.33;;;0.88;;
51034;SDS011;37062;52.546;13.230;2022-12-29T11:15:06;2.85;;;1.33;;
51034;SDS011;37062;52.546;13.230;2022-12-29T11:17:46;1.90;;;1.25;;
51034;SDS011;37062;52.546;13.230;2022-12-29T11:23:04;2.28;;;1.00;;
51034;SDS011;37062;52.546;13.230;2022-12-29T11:25:56;1.58;;;0.88;;
51034;SDS011;37062;52.546;13.230;2022-12-29T11:28:34;1.73;;;0.95;;
51034;SDS011;37062;52.546;13.230;2022-12-29T11:31:03;1.75;;;1.00;;
51034;SDS011;37062;52.546;13.230;2022-12-29T11:33:34;3.00;;;1.08;;
51034;SDS011;37062;52.546;13.230;2022-12-29T11:36:04;4.85;;;0.90;;
51034;SDS011;37062;52.546;13.230;2022-12-29T11:38:35;0.98;;;0.80;;
51034;SDS011;37062;52.546;13.230;2022-12-29T11:41:06;1.38;;;0.80;;
51034;SDS011;37062;52.546;13.230;2022-12-29T11:43:40;2.80;;;1.67;;
51034;SDS011;37062;52.546;13.230;2022-12-29T11:46:12;0.98;;;0.88;;
51034;SDS011;37062;52.546;13.230;2022-12-29T11:48:47;2.25;;;1.00;;
51034;SDS011;37062;52.546;13.230;2022-12-29T11:51:21;2.17;;;1.00;;
51034;SDS011;37062;52.546;13.230;2022-12-29T11:53:51;2.08;;;0.90;;
51034;SDS011;37062;52.546;13.230;2022-12-29T11:56:32;2.15;;;1.00;;
51034;SDS011;37062;52.546;13.230;2022-12-29T11:59:34;2.63;;;0.88;;
51034;SDS011;37062;52.546;13.230;2022-12-29T12:02:23;0.95;;;0.80;;
51034;SDS011;37062;52.546;13.230;2022-12-29T12:08:01;1.20;;;0.70;;
51034;SDS011;37062;52.546;13.230;2022-12-29T12:10:43;1.58;;;0.90;;
51034;SDS011;37062;52.546;13.230;2022-12-29T12:13:20;1.23;;;0.90;;
51034;SDS011;37062;52.546;13.230;2022-12-29T12:15:54;0.77;;;0.65;;
51034;SDS011;37062;52.546;13.230;2022-12-29T12:18:30;1.83;;;0.90;;
51034;SDS011;37062;52.546;13.230;2022-12-29T12:21:08;0.88;;;0.70;;
51034;SDS011;37062;52.546;13.230;2022-12-29T12:23:44;2.58;;;0.80;;
51034;SDS011;37062;52.546;13.230;2022-12-29T12:26:32;0.90;;;0.75;;
51034;SDS011;37062;52.546;13.230;2022-12-29T12:29:08;1.05;;;0.73;;
51034;SDS011;37062;52.546;13.230;2022-12-29T12:31:45;1.35;;;0.90;;
51034;SDS011;37062;52.546;13.230;2022-12-29T12:34:20;1.75;;;0.90;;
51034;SDS011;37062;52.546;13.230;2022-12-29T12:36:57;1.75;;;0.70;;
51034;SDS011;37062;52.546;13.230;2022-12-29T12:39:41;1.33;;;0.73;;
51034;SDS011;37062;52.546;13.230;2022-12-29T12:42:29;2.63;;;0.63;;
51034;SDS011;37062;52.546;13.230;2022-12-29T12:45:17;3.40;;;0.88;;
51034;SDS011;37062;52.546;13.230;2022-12-29T12:48:12;2.33;;;0.80;;
51034;SDS011;37062;52.546;13.230;2022-12-29T12:50:58;0.82;;;0.65;;
51034;SDS011;37062;52.546;13.230;2022-12-29T12:53:40;1.25;;;0.70;;
51034;SDS011;37062;52.546;13.230;2022-12-29T12:59:27;1.02;;;0.80;;
51034;SDS011;37062;52.546;13.230;2022-12-29T13:02:09;0.90;;;0.73;;
51034;SDS011;37062;52.546;13.230;2022-12-29T13:04:55;1.42;;;0.70;;
51034;SDS011;37062;52.546;13.230;2022-12-29T13:07:38;1.45;;;0.60;;
51034;SDS011;37062;52.546;13.230;2022-12-29T13:10:29;0.70;;;0.70;;
51034;SDS011;37062;52.546;13.230;2022-12-29T13:13:12;1.08;;;0.70;;
51034;SDS011;37062;52.546;13.230;2022-12-29T13:15:57;1.23;;;0.70;;
51034;SDS011;37062;52.546;13.230;2022-12-29T13:18:43;5.32;;;1.00;;
51034;SDS011;37062;52.546;13.230;2022-12-29T13:21:20;1.13;;;1.02;;
51034;SDS011;37062;52.546;13.230;2022-12-29T13:24:05;0.85;;;0.70;;
51034;SDS011;37062;52.546;13.230;2022-12-29T13:26:45;1.05;;;0.90;;
51034;SDS011;37062;52.546;13.230;2022-12-29T13:29:18;2.38;;;1.10;;
51034;SDS011;37062;52.546;13.230;2022-12-29T13:31:51;2.63;;;1.00;;
51034;SDS011;37062;52.546;13.230;2022-12-29T13:34:26;2.40;;;1.00;;
51034;SDS011;37062;52.546;13.230;2022-12-29T13:37:01;1.67;;;0.80;;
51034;SDS011;37062;52.546;13.230;2022-12-29T13:39:33;1.75;;;0.98;;
51034;SDS011;37062;52.546;13.230;2022-12-29T13:42:05;2.30;;;0.70;;
51034;SDS011;37062;52.546;13.230;2022-12-29T13:44:35;1.55;;;1.10;;
51034;SDS011;37062;52.546;13.230;2022-12-29T13:47:15;1.88;;;0.88;;
51034;SDS011;37062;52.546;13.230;2022-12-29T13:49:49;1.77;;;1.02;;
51034;SDS011;37062;52.546;13.230;2022-12-29T13:52:21;1.98;;;0.98;;
51034;SDS011;37062;52.546;13.230;2022-12-29T13:54:57;2.33;;;0.90;;
51034;SDS011;37062;52.546;13.230;2022-12-29T13:57:39;2.70;;;1.02;;
51034;SDS011;37062;52.546;13.230;2022-12-29T14:00:14;1.10;;;0.80;;
51034;SDS011;37062;52.546;13.230;2022-12-29T14:02:49;0.80;;;0.70;;
51034;SDS011;37062;52.546;13.230;2022-12-29T14:05:36;1.98;;;1.00;;
51034;SDS011;37062;52.546;13.230;2022-12-29T14:08:04;1.50;;;1.15;;
51034;SDS011;37062;52.546;13.230;2022-12-29T14:10:45;2.63;;;0.80;;
51034;SDS011;37062;52.546;13.230;2022-12-29T14:13:18;2.78;;;0.93;;
51034;SDS011;37062;52.546;13.230;2022-12-29T14:15:57;1.27;;;0.90;;
51034;SDS011;37062;52.546;13.230;2022-12-29T14:18:28;1.10;;;1.00;;
51034;SDS011;37062;52.546;13.230;2022-12-29T14:20:59;2.75;;;1.30;;
51034;SDS011;37062;52.546;13.230;2022-12-29T14:23:37;1.52;;;1.02;;
51034;SDS011;37062;52.546;13.230;2022-12-29T14:26:11;2.08;;;0.90;;
51034;SDS011;37062;52.546;13.230;2022-12-29T14:28:43;2.63;;;1.10;;
51034;SDS011;37062;52.546;13.230;2022-12-29T14:37:15;1.20;;;1.02;;
51034;SDS011;37062;52.546;13.230;2022-12-29T14:40:01;1.75;;;1.10;;
51034;SDS011;37062;52.546;13.230;2022-12-29T14:42:33;2.40;;;1.10;;
51034;SDS011;37062;52.546;13.230;2022-12-29T14:45:05;2.30;;;1.02;;
51034;SDS011;37062;52.546;13.230;2022-12-29T14:47:36;1.30;;;1.20;;
51034;SDS011;37062;52.546;13.230;2022-12-29T14:50:10;2.65;;;0.93;;
51034;SDS011;37062;52.546;13.230;2022-12-29T14:52:44;1.10;;;1.00;;
51034;SDS011;37062;52.546;13.230;2022-12-29T14:58:06;1.13;;;0.90;;
51034;SDS011;37062;52.546;13.230;2022-12-29T15:00:43;3.20;;;1.27;;
51034;SDS011;37062;52.546;13.230;2022-12-29T15:03:14;1.85;;;1.20;;
51034;SDS011;37062;52.546;13.230;2022-12-29T15:05:48;1.85;;;1.20;;
51034;SDS011;37062;52.546;13.230;2022-12-29T15:08:19;1.83;;;1.20;;
51034;SDS011;37062;52.546;13.230;2022-12-29T15:10:53;1.77;;;1.25;;
51034;SDS011;37062;52.546;13.230;2022-12-29T15:13:24;1.55;;;1.10;;
51034;SDS011;37062;52.546;13.230;2022-12-29T15:16:03;1.30;;;0.90;;
51034;SDS011;37062;52.546;13.230;2022-12-29T15:18:32;2.50;;;1.20;;
51034;SDS011;37062;52.546;13.230;2022-12-29T15:21:01;1.70;;;1.35;;
51034;SDS011;37062;52.546;13.230;2022-12-29T15:23:33;1.52;;;1.00;;
51034;SDS011;37062;52.546;13.230;2022-12-29T15:26:02;1.60;;;1.30;;
51034;SDS011;37062;52.546;13.230;2022-12-29T15:28:36;1.98;;;1.50;;
51034;SDS011;37062;52.546;13.230;2022-12-29T15:31:10;3.78;;;1.20;;
51034;SDS011;37062;52.546;13.230;2022-12-29T15:33:41;1.52;;;1.02;;
51034;SDS011;37062;52.546;13.230;2022-12-29T15:36:11;1.98;;;1.00;;
51034;SDS011;37062;52.546;13.230;2022-12-29T15:38:41;3.30;;;0.98;;